createdAt,value
2019-05-05T00:00:30.997Z,1004.02
2019-05-05T00:01:31.004Z,1004.13
2019-05-05T00:02:30.977Z,1004.06
2019-05-05T00:03:30.960Z,1004.13
2019-05-05T00:04:30.951Z,1004.15
2019-05-05T00:05:30.939Z,1004.11
2019-05-05T00:06:30.947Z,1004.12
2019-05-05T00:07:30.925Z,1004.07
2019-05-05T00:08:30.904Z,1004.04
2019-05-05T00:09:30.897Z,1003.96
2019-05-05T00:10:30.886Z,1004.06
2019-05-05T00:11:30.900Z,1004.00
2019-05-05T00:12:30.858Z,1003.98
2019-05-05T00:13:30.847Z,1004.04
2019-05-05T00:14:30.838Z,1003.98
2019-05-05T00:15:30.824Z,1004.09
2019-05-05T00:16:30.812Z,1004.11
2019-05-05T00:17:30.819Z,1004.08
2019-05-05T00:18:30.792Z,1004.11
2019-05-05T00:19:33.338Z,1004.05
2019-05-05T00:20:31.769Z,1004.06
2019-05-05T00:21:30.756Z,1004.08
2019-05-05T00:22:30.768Z,1004.06
2019-05-05T00:23:30.733Z,1004.17
2019-05-05T00:24:30.720Z,1004.13
2019-05-05T00:25:30.710Z,1004.15
2019-05-05T00:26:30.702Z,1004.11
2019-05-05T00:27:30.688Z,1004.15
2019-05-05T00:28:30.697Z,1004.09
2019-05-05T00:29:30.670Z,1004.14
2019-05-05T00:30:30.653Z,1004.16
2019-05-05T00:31:30.641Z,1004.14
2019-05-05T00:32:30.629Z,1004.19
2019-05-05T00:33:30.639Z,1004.15
2019-05-05T00:34:30.607Z,1004.20
2019-05-05T00:35:30.595Z,1004.22
2019-05-05T00:36:30.587Z,1004.24
2019-05-05T00:37:30.574Z,1004.25
2019-05-05T00:38:30.608Z,1004.24
2019-05-05T00:39:30.551Z,1004.18
2019-05-05T00:40:30.541Z,1004.18
2019-05-05T00:41:30.527Z,1004.24
2019-05-05T00:42:30.516Z,1004.20
2019-05-05T00:43:30.502Z,1004.18
2019-05-05T00:44:30.512Z,1004.22
2019-05-05T00:45:30.482Z,1004.23
2019-05-05T00:46:30.470Z,1004.17
2019-05-05T00:47:30.459Z,1004.20
2019-05-05T00:48:30.447Z,1004.20
2019-05-05T00:49:42.813Z,1004.23
2019-05-05T00:50:31.422Z,1004.21
2019-05-05T00:51:30.412Z,1004.26
2019-05-05T00:52:30.410Z,1004.21
2019-05-05T00:53:30.391Z,1004.29
2019-05-05T00:54:30.428Z,1004.31
2019-05-05T00:55:30.367Z,1004.31
2019-05-05T00:56:30.355Z,1004.33
2019-05-05T00:57:30.345Z,1004.28
2019-05-05T00:58:30.334Z,1004.39
2019-05-05T00:59:30.340Z,1004.37
2019-05-05T01:00:30.309Z,1004.33
2019-05-05T01:01:30.301Z,1004.32
2019-05-05T01:02:30.289Z,1004.34
2019-05-05T01:03:30.275Z,1004.28
2019-05-05T01:04:30.303Z,1004.39
2019-05-05T01:05:30.251Z,1004.38
2019-05-05T01:06:30.242Z,1004.30
2019-05-05T01:07:30.230Z,1004.35
2019-05-05T01:08:30.224Z,1004.33
2019-05-05T01:09:30.206Z,1004.34
2019-05-05T01:10:30.213Z,1004.33
2019-05-05T01:11:30.183Z,1004.35
2019-05-05T01:12:30.174Z,1004.41
2019-05-05T01:13:30.159Z,1004.33
2019-05-05T01:14:30.151Z,1004.34
2019-05-05T01:15:30.156Z,1004.39
2019-05-05T01:16:30.124Z,1004.35
2019-05-05T01:17:30.116Z,1004.38
2019-05-05T01:18:30.106Z,1004.39
2019-05-05T01:19:30.093Z,1004.39
2019-05-05T01:20:30.103Z,1004.40
2019-05-05T01:21:30.070Z,1004.46
2019-05-05T01:22:30.057Z,1004.40
2019-05-05T01:23:30.045Z,1004.43
2019-05-05T01:24:30.033Z,1004.44
2019-05-05T01:25:30.044Z,1004.44
2019-05-05T01:26:30.011Z,1004.38
2019-05-05T01:27:30.000Z,1004.41
2019-05-05T01:28:29.988Z,1004.37
2019-05-05T01:29:29.980Z,1004.38
2019-05-05T01:30:29.971Z,1004.36
2019-05-05T01:31:29.974Z,1004.39
2019-05-05T01:32:29.943Z,1004.40
2019-05-05T01:33:29.932Z,1004.32
2019-05-05T01:34:29.920Z,1004.35
2019-05-05T01:35:29.908Z,1004.38
2019-05-05T01:36:29.915Z,1004.40
2019-05-05T01:37:29.888Z,1004.39
2019-05-05T01:38:29.875Z,1004.46
2019-05-05T01:39:29.863Z,1004.48
2019-05-05T01:40:29.852Z,1004.44
2019-05-05T01:41:29.858Z,1004.47
2019-05-05T01:42:29.831Z,1004.46
2019-05-05T01:43:29.818Z,1004.44
2019-05-05T01:44:29.807Z,1004.46
2019-05-05T01:45:29.796Z,1004.50
2019-05-05T01:46:29.808Z,1004.42
2019-05-05T01:47:29.777Z,1004.41
2019-05-05T01:48:29.762Z,1004.42
2019-05-05T01:49:29.754Z,1004.39
2019-05-05T01:50:29.738Z,1004.45
2019-05-05T01:51:29.724Z,1004.43
2019-05-05T01:52:29.733Z,1004.48
2019-05-05T01:53:29.706Z,1004.39
2019-05-05T01:54:29.691Z,1004.39
2019-05-05T01:55:29.681Z,1004.48
2019-05-05T01:56:29.670Z,1004.42
2019-05-05T01:57:29.679Z,1004.35
2019-05-05T01:58:29.646Z,1004.35
2019-05-05T01:59:29.636Z,1004.39
2019-05-05T02:00:29.625Z,1004.43
2019-05-05T02:01:29.613Z,1004.39
2019-05-05T02:02:29.608Z,1004.42
2019-05-05T02:03:29.607Z,1004.41
2019-05-05T02:04:29.578Z,1004.39
2019-05-05T02:05:29.568Z,1004.39
2019-05-05T02:06:29.556Z,1004.43
2019-05-05T02:07:29.543Z,1004.45
2019-05-05T02:08:29.551Z,1004.43
2019-05-05T02:09:29.523Z,1004.52
2019-05-05T02:10:29.515Z,1004.52
2019-05-05T02:11:29.500Z,1004.49
2019-05-05T02:12:29.486Z,1004.50
2019-05-05T02:13:29.494Z,1004.43
2019-05-05T02:14:29.462Z,1004.49
2019-05-05T02:15:29.454Z,1004.40
2019-05-05T02:16:29.442Z,1004.38
2019-05-05T02:17:29.435Z,1004.46
2019-05-05T02:18:29.441Z,1004.45
2019-05-05T02:19:29.407Z,1004.38
2019-05-05T02:20:31.301Z,1004.46
2019-05-05T02:21:29.384Z,1004.40
2019-05-05T02:22:29.373Z,1004.44
2019-05-05T02:23:29.361Z,1004.47
2019-05-05T02:24:29.369Z,1004.40
2019-05-05T02:25:29.339Z,1004.39
2019-05-05T02:26:29.329Z,1004.42
2019-05-05T02:27:29.317Z,1004.44
2019-05-05T02:28:29.303Z,1004.40
2019-05-05T02:29:29.312Z,1004.44
2019-05-05T02:30:29.283Z,1004.44
2019-05-05T02:31:29.273Z,1004.50
2019-05-05T02:32:29.262Z,1004.43
2019-05-05T02:33:29.254Z,1004.49
2019-05-05T02:34:29.260Z,1004.44
2019-05-05T02:35:29.225Z,1004.44
2019-05-05T02:36:29.216Z,1004.49
2019-05-05T02:37:29.206Z,1004.54
2019-05-05T02:38:29.191Z,1004.55
2019-05-05T02:39:29.180Z,1004.56
2019-05-05T02:40:29.188Z,1004.57
2019-05-05T02:41:29.155Z,1004.51
2019-05-05T02:42:29.150Z,1004.52
2019-05-05T02:43:29.133Z,1004.54
2019-05-05T02:44:29.124Z,1004.49
2019-05-05T02:45:29.130Z,1004.47
2019-05-05T02:46:29.099Z,1004.55
2019-05-05T02:47:29.109Z,1004.55
2019-05-05T02:48:29.095Z,1004.57
2019-05-05T02:49:29.064Z,1004.51
2019-05-05T02:50:47.289Z,1004.53
2019-05-05T02:51:30.053Z,1004.59
2019-05-05T02:52:29.032Z,1004.57
2019-05-05T02:53:29.022Z,1004.52
2019-05-05T02:54:29.010Z,1004.54
2019-05-05T02:55:32.101Z,1004.51
2019-05-05T02:56:28.991Z,1004.53
2019-05-05T02:57:28.973Z,1004.52
2019-05-05T02:58:28.962Z,1004.58
2019-05-05T02:59:28.953Z,1004.62
2019-05-05T03:00:28.941Z,1004.61
2019-05-05T03:01:28.951Z,1004.57
2019-05-05T03:02:28.919Z,1004.59
2019-05-05T03:03:28.908Z,1004.59
2019-05-05T03:04:28.899Z,1004.55
2019-05-05T03:05:28.884Z,1004.54
2019-05-05T03:06:28.896Z,1004.54
2019-05-05T03:07:28.863Z,1004.55
2019-05-05T03:08:28.852Z,1004.52
2019-05-05T03:09:28.841Z,1004.57
2019-05-05T03:10:28.829Z,1004.57
2019-05-05T03:11:28.838Z,1004.58
2019-05-05T03:12:28.809Z,1004.57
2019-05-05T03:13:28.795Z,1004.57
2019-05-05T03:14:28.784Z,1004.59
2019-05-05T03:15:28.769Z,1004.57
2019-05-05T03:16:28.778Z,1004.59
2019-05-05T03:17:28.747Z,1004.60
2019-05-05T03:18:28.735Z,1004.65
2019-05-05T03:19:28.726Z,1004.51
2019-05-05T03:20:28.713Z,1004.54
2019-05-05T03:21:28.721Z,1004.55
2019-05-05T03:22:28.691Z,1004.58
2019-05-05T03:23:28.683Z,1004.55
2019-05-05T03:24:28.673Z,1004.57
2019-05-05T03:25:28.656Z,1004.57
2019-05-05T03:26:28.670Z,1004.55
2019-05-05T03:27:28.637Z,1004.59
2019-05-05T03:28:28.624Z,1004.51
2019-05-05T03:29:28.611Z,1004.55
2019-05-05T03:30:28.602Z,1004.60
2019-05-05T03:31:28.591Z,1004.53
2019-05-05T03:32:28.598Z,1004.58
2019-05-05T03:33:28.566Z,1004.65
2019-05-05T03:34:28.554Z,1004.64
2019-05-05T03:35:28.543Z,1004.60
2019-05-05T03:36:28.531Z,1004.62
2019-05-05T03:37:28.538Z,1004.58
2019-05-05T03:38:28.509Z,1004.60
2019-05-05T03:39:28.499Z,1004.62
2019-05-05T03:40:28.489Z,1004.61
2019-05-05T03:41:28.476Z,1004.68
2019-05-05T03:42:28.483Z,1004.61
2019-05-05T03:43:28.452Z,1004.63
2019-05-05T03:44:28.443Z,1004.63
2019-05-05T03:45:28.431Z,1004.58
2019-05-05T03:46:28.417Z,1004.58
2019-05-05T03:47:28.429Z,1004.62
2019-05-05T03:48:28.396Z,1004.65
2019-05-05T03:49:28.386Z,1004.58
2019-05-05T03:50:28.374Z,1004.63
2019-05-05T03:51:28.360Z,1004.67
2019-05-05T03:52:28.373Z,1004.63
2019-05-05T03:53:28.340Z,1004.63
2019-05-05T03:54:28.328Z,1004.65
2019-05-05T03:55:28.318Z,1004.68
2019-05-05T03:56:28.304Z,1004.63
2019-05-05T03:57:28.294Z,1004.72
2019-05-05T03:58:28.300Z,1004.68
2019-05-05T03:59:28.271Z,1004.66
2019-05-05T04:00:28.260Z,1004.70
2019-05-05T04:01:28.247Z,1004.80
2019-05-05T04:02:28.235Z,1004.80
2019-05-05T04:03:28.251Z,1004.75
2019-05-05T04:04:28.215Z,1004.79
2019-05-05T04:05:28.201Z,1004.79
2019-05-05T04:06:28.189Z,1004.75
2019-05-05T04:07:28.177Z,1004.75
2019-05-05T04:08:28.166Z,1004.75
2019-05-05T04:09:28.177Z,1004.79
2019-05-05T04:10:28.146Z,1004.78
2019-05-05T04:11:28.133Z,1004.82
2019-05-05T04:12:28.126Z,1004.86
2019-05-05T04:13:28.107Z,1004.87
2019-05-05T04:14:28.119Z,1004.82
2019-05-05T04:15:28.087Z,1004.89
2019-05-05T04:16:28.075Z,1004.83
2019-05-05T04:17:28.064Z,1004.95
2019-05-05T04:18:28.054Z,1004.92
2019-05-05T04:19:28.064Z,1004.90
2019-05-05T04:20:28.030Z,1004.90
2019-05-05T04:21:33.614Z,1004.91
2019-05-05T04:22:29.007Z,1004.88
2019-05-05T04:23:27.997Z,1004.95
2019-05-05T04:24:27.986Z,1004.99
2019-05-05T04:25:27.992Z,1004.91
2019-05-05T04:26:27.962Z,1004.93
2019-05-05T04:27:27.951Z,1005.01
2019-05-05T04:28:27.940Z,1005.03
2019-05-05T04:29:27.931Z,1004.97
2019-05-05T04:30:27.933Z,1005.01
2019-05-05T04:31:27.906Z,1005.06
2019-05-05T04:32:27.891Z,1005.04
2019-05-05T04:33:27.886Z,1004.99
2019-05-05T04:34:27.875Z,1004.97
2019-05-05T04:35:27.897Z,1004.90
2019-05-05T04:36:27.847Z,1004.94
2019-05-05T04:37:27.834Z,1005.00
2019-05-05T04:38:27.824Z,1004.97
2019-05-05T04:39:27.815Z,1004.93
2019-05-05T04:40:27.799Z,1005.02
2019-05-05T04:41:27.807Z,1005.01
2019-05-05T04:42:27.778Z,1004.98
2019-05-05T04:43:27.768Z,1004.97
2019-05-05T04:44:27.755Z,1005.03
2019-05-05T04:45:27.743Z,1005.03
2019-05-05T04:46:27.750Z,1005.09
2019-05-05T04:47:27.721Z,1005.05
2019-05-05T04:48:27.713Z,1005.08
2019-05-05T04:49:27.697Z,1005.06
2019-05-05T04:50:27.689Z,1005.11
2019-05-05T04:51:27.695Z,1005.08
2019-05-05T04:52:27.667Z,1005.15
2019-05-05T04:53:27.652Z,1005.16
2019-05-05T04:54:27.642Z,1005.12
2019-05-05T04:55:27.630Z,1005.16
2019-05-05T04:56:29.941Z,1005.23
2019-05-05T04:57:27.604Z,1005.29
2019-05-05T04:58:27.598Z,1005.27
2019-05-05T04:59:27.584Z,1005.32
2019-05-05T05:00:27.572Z,1005.35
2019-05-05T05:01:27.559Z,1005.31
2019-05-05T05:02:27.565Z,1005.34
2019-05-05T05:03:27.537Z,1005.42
2019-05-05T05:04:27.525Z,1005.35
2019-05-05T05:05:27.513Z,1005.39
2019-05-05T05:06:27.503Z,1005.40
2019-05-05T05:07:27.510Z,1005.45
2019-05-05T05:08:27.481Z,1005.45
2019-05-05T05:09:27.467Z,1005.43
2019-05-05T05:10:27.458Z,1005.41
2019-05-05T05:11:27.446Z,1005.36
2019-05-05T05:12:27.449Z,1005.38
2019-05-05T05:13:27.421Z,1005.48
2019-05-05T05:14:27.409Z,1005.45
2019-05-05T05:15:27.400Z,1005.45
2019-05-05T05:16:27.390Z,1005.42
2019-05-05T05:17:27.396Z,1005.48
2019-05-05T05:18:27.366Z,1005.42
2019-05-05T05:19:27.358Z,1005.44
2019-05-05T05:20:27.342Z,1005.47
2019-05-05T05:21:27.332Z,1005.47
2019-05-05T05:22:27.342Z,1005.43
2019-05-05T05:23:29.663Z,1005.60
2019-05-05T05:24:27.296Z,1005.56
2019-05-05T05:25:27.287Z,1005.54
2019-05-05T05:26:27.276Z,1005.57
2019-05-05T05:27:27.272Z,1005.57
2019-05-05T05:28:27.269Z,1005.54
2019-05-05T05:29:27.245Z,1005.60
2019-05-05T05:30:27.228Z,1005.61
2019-05-05T05:31:27.219Z,1005.58
2019-05-05T05:32:27.204Z,1005.55
2019-05-05T05:33:27.212Z,1005.61
2019-05-05T05:34:27.185Z,1005.57
2019-05-05T05:35:27.174Z,1005.59
2019-05-05T05:36:27.160Z,1005.72
2019-05-05T05:37:27.151Z,1005.63
2019-05-05T05:38:27.161Z,1005.63
2019-05-05T05:39:27.124Z,1005.66
2019-05-05T05:40:27.114Z,1005.69
2019-05-05T05:41:27.104Z,1005.63
2019-05-05T05:42:27.092Z,1005.71
2019-05-05T05:43:27.101Z,1005.72
2019-05-05T05:44:28.146Z,1005.71
2019-05-05T05:45:27.059Z,1005.75
2019-05-05T05:46:27.051Z,1005.72
2019-05-05T05:47:27.034Z,1005.76
2019-05-05T05:48:27.024Z,1005.78
2019-05-05T05:49:27.033Z,1005.80
2019-05-05T05:50:27.003Z,1005.76
2019-05-05T05:51:27.004Z,1005.81
2019-05-05T05:52:26.987Z,1005.72
2019-05-05T05:53:26.974Z,1005.82
2019-05-05T05:54:26.974Z,1005.80
2019-05-05T05:55:26.943Z,1005.86
2019-05-05T05:56:26.932Z,1005.83
2019-05-05T05:57:26.920Z,1005.86
2019-05-05T05:58:26.913Z,1005.91
2019-05-05T05:59:26.917Z,1005.89
2019-05-05T06:00:26.888Z,1005.88
2019-05-05T06:01:26.877Z,1006.04
2019-05-05T06:02:26.864Z,1005.93
2019-05-05T06:03:26.850Z,1006.00
2019-05-05T06:04:26.880Z,1005.93
2019-05-05T06:05:26.829Z,1006.01
2019-05-05T06:06:26.818Z,1005.95
2019-05-05T06:07:26.806Z,1005.99
2019-05-05T06:08:29.767Z,1005.98
2019-05-05T06:09:26.782Z,1005.99
2019-05-05T06:10:27.405Z,1006.06
2019-05-05T06:11:26.759Z,1006.11
2019-05-05T06:12:26.749Z,1006.10
2019-05-05T06:13:26.738Z,1006.15
2019-05-05T06:14:26.723Z,1006.14
2019-05-05T06:15:26.734Z,1006.11
2019-05-05T06:16:26.702Z,1006.12
2019-05-05T06:17:26.691Z,1006.14
2019-05-05T06:18:26.679Z,1006.15
2019-05-05T06:19:26.668Z,1006.16
2019-05-05T06:20:26.676Z,1006.15
2019-05-05T06:21:26.646Z,1006.19
2019-05-05T06:22:29.320Z,1006.15
2019-05-05T06:23:26.621Z,1006.15
2019-05-05T06:24:26.609Z,1006.25
2019-05-05T06:25:26.949Z,1006.21
2019-05-05T06:26:26.620Z,1006.22
2019-05-05T06:27:26.574Z,1006.20
2019-05-05T06:28:26.569Z,1006.16
2019-05-05T06:29:26.551Z,1006.23
2019-05-05T06:30:26.537Z,1006.27
2019-05-05T06:31:26.545Z,1006.24
2019-05-05T06:32:26.517Z,1006.25
2019-05-05T06:33:26.503Z,1006.26
2019-05-05T06:34:26.495Z,1006.30
2019-05-05T06:35:26.481Z,1006.34
2019-05-05T06:36:26.487Z,1006.33
2019-05-05T06:37:26.456Z,1006.34
2019-05-05T06:38:26.445Z,1006.35
2019-05-05T06:39:26.436Z,1006.29
2019-05-05T06:40:26.423Z,1006.35
2019-05-05T06:41:26.430Z,1006.38
2019-05-05T06:42:26.399Z,1006.32
2019-05-05T06:43:26.392Z,1006.39
2019-05-05T06:44:26.377Z,1006.29
2019-05-05T06:45:26.366Z,1006.40
2019-05-05T06:46:26.371Z,1006.39
2019-05-05T06:47:26.345Z,1006.45
2019-05-05T06:48:26.329Z,1006.40
2019-05-05T06:49:26.320Z,1006.38
2019-05-05T06:50:26.309Z,1006.42
2019-05-05T06:51:26.314Z,1006.38
2019-05-05T06:52:26.284Z,1006.43
2019-05-05T06:53:26.274Z,1006.33
2019-05-05T06:54:26.263Z,1006.42
2019-05-05T06:55:26.253Z,1006.41
2019-05-05T06:56:26.262Z,1006.39
2019-05-05T06:57:26.229Z,1006.41
2019-05-05T06:58:26.217Z,1006.47
2019-05-05T06:59:26.206Z,1006.46
2019-05-05T07:00:26.197Z,1006.52
2019-05-05T07:01:26.187Z,1006.53
2019-05-05T07:02:26.193Z,1006.48
2019-05-05T07:03:26.164Z,1006.52
2019-05-05T07:04:26.150Z,1006.53
2019-05-05T07:05:26.138Z,1006.44
2019-05-05T07:06:26.129Z,1006.46
2019-05-05T07:07:26.131Z,1006.47
2019-05-05T07:08:26.102Z,1006.46
2019-05-05T07:09:26.092Z,1006.48
2019-05-05T07:10:26.079Z,1006.52
2019-05-05T07:11:26.102Z,1006.49
2019-05-05T07:12:26.076Z,1006.50
2019-05-05T07:13:26.046Z,1006.42
2019-05-05T07:14:26.034Z,1006.45
2019-05-05T07:15:26.022Z,1006.50
2019-05-05T07:16:26.013Z,1006.53
2019-05-05T07:17:26.023Z,1006.51
2019-05-05T07:18:25.995Z,1006.54
2019-05-05T07:19:25.978Z,1006.48
2019-05-05T07:20:25.966Z,1006.56
2019-05-05T07:21:25.955Z,1006.58
2019-05-05T07:22:25.962Z,1006.59
2019-05-05T07:23:25.931Z,1006.61
2019-05-05T07:24:25.919Z,1006.61
2019-05-05T07:25:39.574Z,1006.59
2019-05-05T07:26:26.894Z,1006.54
2019-05-05T07:27:25.885Z,1006.60
2019-05-05T07:28:25.889Z,1006.65
2019-05-05T07:29:25.862Z,1006.57
2019-05-05T07:30:25.846Z,1006.59
2019-05-05T07:31:25.839Z,1006.55
2019-05-05T07:32:25.826Z,1006.49
2019-05-05T07:33:25.831Z,1006.58
2019-05-05T07:34:25.802Z,1006.54
2019-05-05T07:35:25.789Z,1006.63
2019-05-05T07:36:25.780Z,1006.58
2019-05-05T07:37:25.768Z,1006.55
2019-05-05T07:38:25.776Z,1006.56
2019-05-05T07:39:25.744Z,1006.59
2019-05-05T07:40:25.732Z,1006.60
2019-05-05T07:41:25.721Z,1006.61
2019-05-05T07:42:25.712Z,1006.58
2019-05-05T07:43:25.716Z,1006.70
2019-05-05T07:44:29.584Z,1006.53
2019-05-05T07:45:25.978Z,1006.62
2019-05-05T07:46:25.661Z,1006.67
2019-05-05T07:47:25.650Z,1006.70
2019-05-05T07:48:25.656Z,1006.65
2019-05-05T07:49:25.628Z,1006.65
2019-05-05T07:50:32.007Z,1006.68
2019-05-05T07:51:26.603Z,1006.64
2019-05-05T07:52:25.593Z,1006.70
2019-05-05T07:53:25.603Z,1006.69
2019-05-05T07:54:25.572Z,1006.65
2019-05-05T07:55:25.556Z,1006.61
2019-05-05T07:56:25.546Z,1006.68
2019-05-05T07:57:25.538Z,1006.59
2019-05-05T07:58:25.526Z,1006.62
2019-05-05T07:59:25.533Z,1006.71
2019-05-05T08:00:25.503Z,1006.62
2019-05-05T08:01:25.487Z,1006.63
2019-05-05T08:02:25.475Z,1006.70
2019-05-05T08:03:25.463Z,1006.76
2019-05-05T08:04:25.454Z,1006.76
2019-05-05T08:05:25.462Z,1006.72
2019-05-05T08:06:25.429Z,1006.75
2019-05-05T08:07:25.418Z,1006.71
2019-05-05T08:08:25.409Z,1006.76
2019-05-05T08:09:25.398Z,1006.75
2019-05-05T08:10:25.405Z,1006.78
2019-05-05T08:11:25.374Z,1006.80
2019-05-05T08:12:25.363Z,1006.79
2019-05-05T08:13:25.350Z,1006.82
2019-05-05T08:14:25.338Z,1006.81
2019-05-05T08:15:25.351Z,1006.90
2019-05-05T08:16:25.316Z,1006.89
2019-05-05T08:17:25.305Z,1006.85
2019-05-05T08:18:25.298Z,1006.86
2019-05-05T08:19:25.281Z,1006.78
2019-05-05T08:20:25.311Z,1006.75
2019-05-05T08:21:25.261Z,1006.78
2019-05-05T08:22:25.248Z,1007.16
2019-05-05T08:23:31.803Z,1006.92
2019-05-05T08:24:26.221Z,1007.05
2019-05-05T08:25:36.279Z,1007.28
2019-05-05T08:26:26.223Z,1007.08
2019-05-05T08:27:25.193Z,1007.48
2019-05-05T08:28:25.179Z,1007.03
2019-05-05T08:29:25.169Z,1007.54
2019-05-05T08:30:25.156Z,1007.42
2019-05-05T08:31:25.161Z,1007.35
2019-05-05T08:32:25.131Z,1007.07
2019-05-05T08:33:25.121Z,1006.97
2019-05-05T08:34:25.112Z,1006.92
2019-05-05T08:35:25.094Z,1007.05
2019-05-05T08:36:25.102Z,1006.92
2019-05-05T08:37:25.074Z,1007.15
2019-05-05T08:38:25.061Z,1007.06
2019-05-05T08:39:25.051Z,1007.38
2019-05-05T08:40:25.038Z,1007.63
2019-05-05T08:41:25.046Z,1007.65
2019-05-05T08:42:25.060Z,1006.96
2019-05-05T08:43:25.008Z,1007.44
2019-05-05T08:44:24.992Z,1006.94
2019-05-05T08:45:26.719Z,1007.31
2019-05-05T08:46:25.012Z,1007.00
2019-05-05T08:47:28.167Z,1006.91
2019-05-05T08:48:24.948Z,1007.01
2019-05-05T08:49:24.943Z,1006.95
2019-05-05T08:50:27.115Z,1006.86
2019-05-05T08:51:24.914Z,1007.41
2019-05-05T08:52:24.925Z,1006.85
2019-05-05T08:53:24.892Z,1006.77
2019-05-05T08:54:24.879Z,1006.82
2019-05-05T08:55:28.251Z,1006.83
2019-05-05T08:56:24.857Z,1006.80
2019-05-05T08:57:24.868Z,1006.75
2019-05-05T08:58:24.832Z,1006.84
2019-05-05T08:59:24.821Z,1006.88
2019-05-05T09:00:24.811Z,1006.88
2019-05-05T09:01:24.799Z,1007.16
2019-05-05T09:02:24.807Z,1007.01
2019-05-05T09:03:24.776Z,1006.83
2019-05-05T09:04:24.807Z,1006.74
2019-05-05T09:05:24.755Z,1006.74
2019-05-05T09:06:24.743Z,1006.69
2019-05-05T09:07:24.771Z,1006.69
2019-05-05T09:08:24.719Z,1006.59
2019-05-05T09:09:24.710Z,1006.66
2019-05-05T09:10:24.695Z,1006.64
2019-05-05T09:11:24.687Z,1006.64
2019-05-05T09:12:24.674Z,1006.72
2019-05-05T09:13:24.814Z,1006.66
2019-05-05T09:14:24.653Z,1006.69
2019-05-05T09:15:24.640Z,1006.78
2019-05-05T09:16:24.626Z,1006.81
2019-05-05T09:17:27.928Z,1006.73
2019-05-05T09:18:24.738Z,1006.76
2019-05-05T09:19:24.592Z,1006.74
2019-05-05T09:20:24.580Z,1006.85
2019-05-05T09:21:24.569Z,1006.85
2019-05-05T09:22:24.710Z,1006.81
2019-05-05T09:23:24.566Z,1006.83
2019-05-05T09:24:25.007Z,1006.86
2019-05-05T09:25:24.521Z,1006.94
2019-05-05T09:26:24.512Z,1006.83
2019-05-05T09:27:25.521Z,1006.85
2019-05-05T09:28:24.510Z,1006.85
2019-05-05T09:29:24.479Z,1006.84
2019-05-05T09:30:24.675Z,1006.85
2019-05-05T09:31:24.452Z,1006.86
2019-05-05T09:32:24.451Z,1006.84
2019-05-05T09:33:24.822Z,1006.78
2019-05-05T09:34:24.446Z,1006.83
2019-05-05T09:35:24.410Z,1006.80
2019-05-05T09:36:24.402Z,1006.86
2019-05-05T09:37:24.722Z,1006.82
2019-05-05T09:38:24.374Z,1006.83
2019-05-05T09:39:24.387Z,1006.82
2019-05-05T09:40:24.354Z,1006.92
2019-05-05T09:41:24.339Z,1006.82
2019-05-05T09:42:24.331Z,1006.88
2019-05-05T09:43:24.316Z,1006.86
2019-05-05T09:44:24.341Z,1006.87
2019-05-05T09:45:24.460Z,1006.93
2019-05-05T09:46:24.280Z,1006.93
2019-05-05T09:47:24.268Z,1006.86
2019-05-05T09:48:24.426Z,1006.92
2019-05-05T09:49:24.721Z,1006.92
2019-05-05T09:50:24.237Z,1007.14
2019-05-05T09:51:24.291Z,1007.56
2019-05-05T09:52:24.487Z,1007.56
2019-05-05T09:53:27.271Z,1007.62
2019-05-05T09:54:24.379Z,1007.60
2019-05-05T09:55:24.266Z,1007.65
2019-05-05T09:56:24.165Z,1007.60
2019-05-05T09:57:24.154Z,1007.66
2019-05-05T09:58:24.328Z,1007.60
2019-05-05T09:59:24.198Z,1007.67
2019-05-05T10:00:24.422Z,1007.75
2019-05-05T10:01:24.631Z,1007.36
2019-05-05T10:02:24.182Z,1007.75
2019-05-05T10:03:24.087Z,1007.34
2019-05-05T10:04:24.434Z,1007.64
2019-05-05T10:05:24.082Z,1007.23
2019-05-05T10:06:24.434Z,1007.15
2019-05-05T10:07:24.363Z,1007.05
2019-05-05T10:08:24.030Z,1007.03
2019-05-05T10:09:24.258Z,1006.96
2019-05-05T10:10:24.416Z,1006.93
2019-05-05T10:11:23.994Z,1006.90
2019-05-05T10:12:23.983Z,1006.91
2019-05-05T10:13:23.975Z,1006.99
2019-05-05T10:14:23.963Z,1006.96
2019-05-05T10:15:23.969Z,1006.96
2019-05-05T10:16:23.942Z,1006.98
2019-05-05T10:17:24.442Z,1007.03
2019-05-05T10:18:25.546Z,1007.01
2019-05-05T10:19:24.410Z,1007.04
2019-05-05T10:20:23.935Z,1007.03
2019-05-05T10:21:24.665Z,1007.10
2019-05-05T10:22:23.992Z,1007.08
2019-05-05T10:23:23.858Z,1007.16
2019-05-05T10:24:28.525Z,1007.12
2019-05-05T10:25:24.858Z,1007.07
2019-05-05T10:26:23.949Z,1007.11
2019-05-05T10:27:23.813Z,1007.20
2019-05-05T10:28:30.839Z,1007.13
2019-05-05T10:29:23.794Z,1007.13
2019-05-05T10:30:23.906Z,1007.17
2019-05-05T10:31:24.187Z,1007.13
2019-05-05T10:32:24.496Z,1007.10
2019-05-05T10:33:24.716Z,1007.13
2019-05-05T10:34:24.261Z,1007.11
2019-05-05T10:35:23.895Z,1007.13
2019-05-05T10:36:24.499Z,1007.10
2019-05-05T10:37:23.697Z,1007.12
2019-05-05T10:38:23.687Z,1007.10
2019-05-05T10:39:24.119Z,1007.18
2019-05-05T10:40:23.662Z,1007.16
2019-05-05T10:41:23.932Z,1007.15
2019-05-05T10:42:24.425Z,1007.17
2019-05-05T10:43:23.877Z,1007.16
2019-05-05T10:44:23.618Z,1007.17
2019-05-05T10:45:24.503Z,1007.17
2019-05-05T10:46:23.638Z,1007.26
2019-05-05T10:47:24.164Z,1007.27
2019-05-05T10:48:23.665Z,1007.22
2019-05-05T10:49:24.417Z,1007.27
2019-05-05T10:50:24.655Z,1007.30
2019-05-05T10:51:23.838Z,1007.26
2019-05-05T10:52:23.523Z,1007.25
2019-05-05T10:53:23.516Z,1007.28
2019-05-05T10:54:23.734Z,1007.35
2019-05-05T10:55:24.014Z,1007.32
2019-05-05T10:56:24.155Z,1007.34
2019-05-05T10:57:23.675Z,1007.38
2019-05-05T10:58:24.368Z,1007.34
2019-05-05T10:59:23.849Z,1007.35
2019-05-05T11:00:23.426Z,1007.38
2019-05-05T11:01:23.669Z,1007.36
2019-05-05T11:02:24.173Z,1007.41
2019-05-05T11:03:23.796Z,1007.34
2019-05-05T11:04:24.353Z,1007.29
2019-05-05T11:05:23.590Z,1007.43
2019-05-05T11:06:23.354Z,1007.48
2019-05-05T11:07:23.610Z,1007.40
2019-05-05T11:08:24.059Z,1007.45
2019-05-05T11:09:24.413Z,1007.40
2019-05-05T11:10:24.725Z,1007.38
2019-05-05T11:11:23.878Z,1007.35
2019-05-05T11:12:24.686Z,1007.34
2019-05-05T11:13:23.997Z,1007.45
2019-05-05T11:14:23.261Z,1007.44
2019-05-05T11:15:24.701Z,1007.45
2019-05-05T11:16:23.240Z,1007.45
2019-05-05T11:17:24.823Z,1007.49
2019-05-05T11:18:23.812Z,1007.48
2019-05-05T11:19:24.121Z,1007.46
2019-05-05T11:20:24.786Z,1007.48
2019-05-05T11:21:23.749Z,1007.47
2019-05-05T11:22:24.218Z,1007.42
2019-05-05T11:23:24.925Z,1007.45
2019-05-05T11:24:24.002Z,1007.41
2019-05-05T11:25:24.280Z,1007.45
2019-05-05T11:26:24.695Z,1007.39
2019-05-05T11:27:24.148Z,1007.42
2019-05-05T11:28:23.129Z,1007.40
2019-05-05T11:29:24.038Z,1007.35
2019-05-05T11:30:26.735Z,1007.40
2019-05-05T11:31:23.967Z,1007.32
2019-05-05T11:32:24.490Z,1007.34
2019-05-05T11:33:23.700Z,1007.37
2019-05-05T11:34:24.642Z,1007.37
2019-05-05T11:35:24.421Z,1007.36
2019-05-05T11:36:23.981Z,1007.48
2019-05-05T11:37:22.997Z,1007.38
2019-05-05T11:38:24.711Z,1007.36
2019-05-05T11:39:23.551Z,1007.46
2019-05-05T11:40:22.964Z,1007.49
2019-05-05T11:41:24.287Z,1007.43
2019-05-05T11:42:23.859Z,1007.45
2019-05-05T11:43:24.632Z,1007.67
2019-05-05T11:44:24.266Z,1007.54
2019-05-05T11:45:24.049Z,1007.61
2019-05-05T11:46:24.717Z,1007.86
2019-05-05T11:47:24.504Z,1007.76
2019-05-05T11:48:24.005Z,1007.87
2019-05-05T11:49:24.444Z,1007.72
2019-05-05T11:50:23.811Z,1007.81
2019-05-05T11:51:24.820Z,1007.78
2019-05-05T11:52:22.823Z,1007.86
2019-05-05T11:53:24.922Z,1007.74
2019-05-05T11:54:24.561Z,1007.81
2019-05-05T11:55:24.821Z,1007.73
2019-05-05T11:56:22.778Z,1007.68
2019-05-05T11:57:23.980Z,1007.72
2019-05-05T11:58:24.777Z,1007.68
2019-05-05T11:59:23.753Z,1007.73
2019-05-05T12:00:24.153Z,1007.76
2019-05-05T12:01:24.358Z,1007.70
2019-05-05T12:02:24.372Z,1007.72
2019-05-05T12:03:22.708Z,1007.66
2019-05-05T12:04:23.913Z,1007.71
2019-05-05T12:05:24.389Z,1007.78